Strona główna
METAR-TAF:

METAR-TAF

Lotnisko :

New River Valley Airport

Dublin, Wirginia, Stany Zjednoczone

Szerokość geograficzna: 37-08N, Długość geograficzna: 080-41W, wysokość: 642 m

Aktualna obserwacja pogody

Raport powstał 6 minut temu, godzina 02:15 UTC
Wiatr 3 kt od zachód
Temperatura 6°C
Wilgotność 65%
Ciśnienie 1019 hPa
Widzialność: 16.1 km
Rozproszone chmury na wysokości 5500 ft
Przerywane chmury na wysokości 6500 ft
Zachmurzenie całkowite na wysokości 9500 ft

METAR: KPSK 170215Z AUTO 27003KT 10SM SCT055 BKN065 OVC095 06/00 A3008 RMK AO2 T00621003

czas: 21:21 (02:21 UTC)


TAF: brakujący

Obserwacja i prognoza pogody dla ponad 4000 lotnisk (raport METAR i TAF).

Dostępne stacje oznaczono żółtymi i czerwonymi punktami na mapie.

Najedź kursorem aby zobaczyć nazwę stacji.

Kliknij aby zobaczyć obserwacje i prognozy pogody.

Aby zmienić mapę: kliknij na zielony przycisk z czarnym krzyżykiem, aby powiększyć; na zielony przycisk z myślnikiem, aby pomniejszyć; na zielone strzałki, aby przejść do map sąsiednich.


METAR-TAF: